Time;durP1;ratioP1;P1;durP2;ratioP2;P2;SDS_P1;SDS_P2;PMS_P1;PMS_P2;Temp;Humidity;BMP_temperature;BMP_pressure;BME280_temperature;BME280_humidity;BME280_pressure;Samples;Min_cycle;Max_cycle;Signal;HPM_P1;HPM_P2
2023/06/01 00:02:08;;;;;;;12.63;8.93;;;;;;;;;;13108611;22;20379;-89
2023/06/01 00:07:11;;;;;;;12.70;9.07;;;;;;;;;;13108369;22;20480;-89
2023/06/01 00:12:13;;;;;;;10.93;8.97;;;;;;;;;;13107729;22;20432;-89
2023/06/01 00:17:17;;;;;;;12.65;9.20;;;;;;;;;;13107641;22;20364;-89
2023/06/01 00:22:19;;;;;;;11.63;8.80;;;;;;;;;;13108081;22;20436;-89
2023/06/01 00:27:22;;;;;;;10.67;8.73;;;;;;;;;;13108176;22;20363;-89
2023/06/01 00:32:25;;;;;;;12.52;9.35;;;;;;;;;;13107089;22;20723;-89
2023/06/01 00:37:28;;;;;;;12.87;9.13;;;;;;;;;;13107925;22;20367;-89
2023/06/01 00:42:30;;;;;;;12.02;9.40;;;;;;;;;;13106790;22;20408;-88
2023/06/01 00:47:41;;;;;;;14.52;9.80;;;;;;;;;;13108543;22;20389;-89
2023/06/01 00:52:43;;;;;;;12.57;9.70;;;;;;;;;;13107583;22;20657;-89
2023/06/01 00:57:47;;;;;;;14.50;9.68;;;;;;;;;;13107793;22;20343;-88
2023/06/01 01:02:51;;;;;;;12.35;9.40;;;;;;;;;;13106971;22;20444;-89
2023/06/01 01:08:03;;;;;;;13.07;9.25;;;;;;;;;;13106969;22;20363;-89
2023/06/01 01:13:11;;;;;;;13.87;9.80;;;;;;;;;;13107257;22;20405;-89
2023/06/01 01:18:19;;;;;;;11.35;9.70;;;;;;;;;;13107904;22;20424;-89
2023/06/01 01:23:41;;;;;;;11.93;9.75;;;;;;;;;;13111313;22;20379;-88
2023/06/01 01:28:49;;;;;;;12.98;9.00;;;;;;;;;;13111308;22;20822;-88
2023/06/01 01:33:53;;;;;;;10.82;8.80;;;;;;;;;;13111782;22;20428;-89
2023/06/01 01:38:55;;;;;;;12.40;8.97;;;;;;;;;;13111043;22;20359;-89
2023/06/01 01:43:59;;;;;;;12.02;8.63;;;;;;;;;;13111690;22;20379;-89
2023/06/01 01:49:09;;;;;;;10.65;8.45;;;;;;;;;;13110667;22;20413;-89
2023/06/01 01:54:12;;;;;;;11.15;8.60;;;;;;;;;;13110063;22;20367;-89
2023/06/01 01:59:16;;;;;;;10.15;8.32;;;;;;;;;;13105406;22;20375;-88
2023/06/01 02:04:18;;;;;;;13.30;8.60;;;;;;;;;;13108248;22;20398;-89
2023/06/01 02:09:21;;;;;;;10.83;8.30;;;;;;;;;;13109956;22;20363;-88
2023/06/01 02:14:24;;;;;;;10.90;8.38;;;;;;;;;;13109767;22;20367;-88
2023/06/01 02:19:26;;;;;;;10.43;8.43;;;;;;;;;;13110877;22;20421;-88
2023/06/01 02:24:30;;;;;;;10.82;8.43;;;;;;;;;;13110662;22;20672;-89
2023/06/01 02:29:33;;;;;;;11.67;8.13;;;;;;;;;;13110732;22;20356;-89
2023/06/01 02:34:36;;;;;;;11.10;8.75;;;;;;;;;;13110470;22;20429;-88
2023/06/01 02:39:39;;;;;;;12.03;8.37;;;;;;;;;;13107535;22;20424;-89
2023/06/01 02:44:43;;;;;;;11.80;8.60;;;;;;;;;;13109930;22;20927;-89
2023/06/01 02:49:45;;;;;;;10.82;8.27;;;;;;;;;;13110075;22;20389;-88
2023/06/01 02:54:47;;;;;;;11.05;8.65;;;;;;;;;;13109694;22;20413;-88
2023/06/01 02:59:51;;;;;;;12.25;8.73;;;;;;;;;;13109084;22;20401;-89
2023/06/01 03:04:53;;;;;;;10.43;8.30;;;;;;;;;;13109512;22;20436;-89
2023/06/01 03:09:55;;;;;;;11.77;9.05;;;;;;;;;;13109687;22;20355;-89
2023/06/01 03:14:59;;;;;;;14.07;9.05;;;;;;;;;;13109129;22;20360;-88
2023/06/01 03:20:02;;;;;;;11.75;8.82;;;;;;;;;;13109780;22;20413;-88
2023/06/01 03:25:07;;;;;;;11.67;8.80;;;;;;;;;;13108848;22;20440;-89
2023/06/01 03:30:11;;;;;;;12.75;8.90;;;;;;;;;;13108923;22;20359;-88
2023/06/01 03:35:14;;;;;;;11.60;8.73;;;;;;;;;;13110119;22;20412;-89
2023/06/01 03:40:16;;;;;;;12.00;8.70;;;;;;;;;;13108768;22;20424;-89
2023/06/01 03:45:20;;;;;;;11.18;8.85;;;;;;;;;;13108838;22;20383;-89
2023/06/01 03:50:22;;;;;;;14.25;9.40;;;;;;;;;;13108251;22;20355;-88
2023/06/01 03:55:26;;;;;;;11.83;8.80;;;;;;;;;;13107411;22;20359;-89
2023/06/01 04:00:30;;;;;;;11.27;9.07;;;;;;;;;;13109258;22;20359;-89
2023/06/01 04:05:32;;;;;;;11.97;8.30;;;;;;;;;;13108704;22;20371;-88
2023/06/01 04:10:35;;;;;;;12.32;8.88;;;;;;;;;;13108504;22;20359;-88
2023/06/01 04:15:38;;;;;;;13.15;8.50;;;;;;;;;;13108490;22;20691;-89
2023/06/01 04:20:41;;;;;;;13.07;8.82;;;;;;;;;;13108745;22;20463;-88
2023/06/01 04:25:44;;;;;;;11.52;8.75;;;;;;;;;;13107160;22;20375;-88
2023/06/01 04:30:49;;;;;;;14.57;9.83;;;;;;;;;;13108043;22;20899;-89
2023/06/01 04:35:52;;;;;;;10.25;8.30;;;;;;;;;;13108023;22;20409;-89
2023/06/01 04:40:55;;;;;;;11.20;8.15;;;;;;;;;;13079819;22;20375;-88
2023/06/01 04:46:04;;;;;;;10.63;8.00;;;;;;;;;;13106688;22;20375;-89
2023/06/01 04:51:06;;;;;;;10.93;7.95;;;;;;;;;;13106301;22;20421;-88
2023/06/01 04:56:09;;;;;;;9.95;7.70;;;;;;;;;;13106639;22;20721;-89
2023/06/01 05:01:15;;;;;;;12.30;7.82;;;;;;;;;;13106106;22;20422;-89
2023/06/01 05:06:17;;;;;;;10.20;7.40;;;;;;;;;;13106100;22;20379;-88
2023/06/01 05:11:21;;;;;;;9.70;8.18;;;;;;;;;;13105079;22;21069;-89
2023/06/01 05:16:25;;;;;;;10.13;7.77;;;;;;;;;;13106419;22;20351;-89
2023/06/01 05:21:27;;;;;;;10.05;7.72;;;;;;;;;;13106815;22;20423;-89
2023/06/01 05:26:30;;;;;;;10.37;7.00;;;;;;;;;;13106968;22;20457;-89
2023/06/01 05:31:33;;;;;;;12.35;7.50;;;;;;;;;;13105234;22;20812;-89
2023/06/01 05:36:36;;;;;;;9.43;7.25;;;;;;;;;;13105519;22;20433;-89
2023/06/01 05:41:38;;;;;;;9.30;7.43;;;;;;;;;;13103859;22;20359;-89
2023/06/01 05:46:42;;;;;;;8.80;6.75;;;;;;;;;;13101595;22;20359;-89
2023/06/01 05:51:46;;;;;;;9.80;6.70;;;;;;;;;;13102783;22;20363;-89
2023/06/01 05:56:48;;;;;;;9.10;6.90;;;;;;;;;;13104800;22;20355;-89
2023/06/01 06:01:52;;;;;;;9.70;7.50;;;;;;;;;;13104756;22;20401;-86
2023/06/01 06:06:54;;;;;;;9.98;6.43;;;;;;;;;;13126848;22;20371;-82
2023/06/01 06:11:57;;;;;;;8.93;7.07;;;;;;;;;;13108674;22;20428;-88
2023/06/01 06:17:02;;;;;;;7.57;5.82;;;;;;;;;;13109523;22;20414;-84
2023/06/01 06:22:05;;;;;;;9.63;7.43;;;;;;;;;;13111158;22;20352;-92
2023/06/01 06:27:07;;;;;;;10.27;7.22;;;;;;;;;;13110977;22;20679;-90
2023/06/01 06:32:11;;;;;;;13.40;7.18;;;;;;;;;;13112045;22;20424;-85
2023/06/01 06:37:14;;;;;;;10.10;7.25;;;;;;;;;;13109064;22;20393;-85
2023/06/01 06:42:16;;;;;;;14.20;7.17;;;;;;;;;;13110353;22;20451;-80
2023/06/01 06:47:20;;;;;;;10.43;6.72;;;;;;;;;;13108587;22;20363;-82
2023/06/01 06:52:22;;;;;;;11.68;6.43;;;;;;;;;;13109590;22;20420;-85
2023/06/01 06:57:24;;;;;;;9.90;6.40;;;;;;;;;;13108823;22;20424;-81
2023/06/01 07:02:28;;;;;;;7.95;6.20;;;;;;;;;;13109501;22;20454;-86
2023/06/01 07:07:30;;;;;;;34.13;16.42;;;;;;;;;;13108505;22;20822;-79
2023/06/01 07:12:33;;;;;;;9.33;6.27;;;;;;;;;;13107274;22;20452;-85
2023/06/01 07:17:37;;;;;;;7.95;5.45;;;;;;;;;;13115696;22;20903;-90
2023/06/01 07:22:40;;;;;;;7.82;5.70;;;;;;;;;;13110847;22;20424;-90
2023/06/01 07:27:43;;;;;;;7.97;6.38;;;;;;;;;;13110814;22;20827;-87
2023/06/01 07:32:47;;;;;;;7.82;5.68;;;;;;;;;;13108126;22;20386;-85
2023/06/01 07:37:49;;;;;;;8.07;6.00;;;;;;;;;;13108732;22;20413;-88
2023/06/01 07:42:51;;;;;;;10.00;5.88;;;;;;;;;;13108462;22;20664;-88
2023/06/01 07:47:55;;;;;;;7.07;5.57;;;;;;;;;;13109077;22;20355;-89
2023/06/01 07:52:57;;;;;;;8.85;5.80;;;;;;;;;;13108798;22;20416;-88
2023/06/01 07:57:59;;;;;;;9.85;5.55;;;;;;;;;;13108199;22;20393;-89
2023/06/01 08:03:05;;;;;;;8.97;5.47;;;;;;;;;;13104995;22;20859;-88
2023/06/01 08:08:07;;;;;;;6.60;5.07;;;;;;;;;;13107448;22;20360;-88
2023/06/01 08:13:10;;;;;;;6.93;5.18;;;;;;;;;;13108459;22;20410;-86
2023/06/01 08:18:13;;;;;;;8.20;5.00;;;;;;;;;;13109847;22;20422;-84
2023/06/01 08:23:17;;;;;;;7.00;5.25;;;;;;;;;;13109241;22;20363;-86
2023/06/01 08:28:19;;;;;;;8.88;5.28;;;;;;;;;;13106894;22;20440;-87
2023/06/01 08:33:23;;;;;;;8.77;5.17;;;;;;;;;;13106892;22;20420;-87
2023/06/01 08:38:29;;;;;;;6.97;5.20;;;;;;;;;;13106694;22;20367;-88
2023/06/01 08:43:33;;;;;;;12.30;5.20;;;;;;;;;;13106781;22;20428;-88
2023/06/01 08:48:39;;;;;;;6.63;4.88;;;;;;;;;;13107303;22;20381;-85
2023/06/01 08:53:44;;;;;;;6.50;4.85;;;;;;;;;;13107113;22;20359;-78
2023/06/01 08:58:47;;;;;;;6.87;5.30;;;;;;;;;;13106058;22;20676;-87
2023/06/01 09:03:52;;;;;;;6.93;4.95;;;;;;;;;;13103813;22;20382;-90
2023/06/01 09:08:54;;;;;;;6.47;5.30;;;;;;;;;;13103814;22;20359;-90
2023/06/01 09:13:57;;;;;;;7.82;5.07;;;;;;;;;;13106553;22;20416;-89
2023/06/01 09:19:01;;;;;;;7.50;5.30;;;;;;;;;;13105896;22;20412;-93
2023/06/01 09:24:19;;;;;;;6.60;5.18;;;;;;;;;;13106473;22;20440;-86
2023/06/01 09:29:21;;;;;;;6.53;4.80;;;;;;;;;;13107453;22;20359;-85
2023/06/01 09:34:25;;;;;;;7.43;5.07;;;;;;;;;;13107548;22;20393;-85
2023/06/01 09:39:33;;;;;;;8.52;5.20;;;;;;;;;;13106613;22;20749;-82
2023/06/01 09:44:37;;;;;;;8.87;5.47;;;;;;;;;;13110734;22;20410;-82
2023/06/01 09:49:42;;;;;;;8.20;5.40;;;;;;;;;;13109633;22;20428;-84
2023/06/01 09:54:46;;;;;;;6.97;5.45;;;;;;;;;;13109876;22;20431;-84
2023/06/01 09:59:48;;;;;;;7.90;5.33;;;;;;;;;;13112591;22;20390;-87
2023/06/01 10:04:53;;;;;;;7.20;5.33;;;;;;;;;;13109700;22;20923;-85
2023/06/01 10:09:58;;;;;;;7.47;5.40;;;;;;;;;;13108322;22;20819;-85
2023/06/01 10:15:03;;;;;;;7.30;5.47;;;;;;;;;;13109235;22;20389;-82
2023/06/01 10:20:08;;;;;;;7.27;5.93;;;;;;;;;;13109503;22;20389;-81
2023/06/01 10:25:13;;;;;;;7.65;6.18;;;;;;;;;;13109963;22;20383;-79
2023/06/01 10:30:15;;;;;;;8.30;6.10;;;;;;;;;;13110147;22;20680;-85
2023/06/01 10:35:54;;;;;;;7.40;5.70;;;;;;;;;;13103379;22;20359;-82
2023/06/01 10:41:31;;;;;;;7.53;6.05;;;;;;;;;;12901680;23;20372;-81
2023/06/01 10:46:43;;;;;;;11.53;5.83;;;;;;;;;;13076969;22;20479;-82
2023/06/01 10:51:47;;;;;;;7.90;5.63;;;;;;;;;;13099698;22;20448;-85
2023/06/01 10:57:24;;;;;;;8.45;5.68;;;;;;;;;;13099607;22;20379;-83
2023/06/01 11:02:26;;;;;;;9.02;6.00;;;;;;;;;;13097264;22;20447;-85
2023/06/01 11:07:39;;;;;;;7.27;5.50;;;;;;;;;;13093917;22;21193;-85
2023/06/01 11:13:12;;;;;;;8.17;5.80;;;;;;;;;;13098837;22;20374;-86
2023/06/01 11:18:42;;;;;;;6.17;5.30;;;;;;;;;;13077634;22;20405;-84
2023/06/01 11:23:46;;;;;;;5.75;5.15;;;;;;;;;;13097148;22;20371;-84
2023/06/01 11:28:49;;;;;;;5.93;5.20;;;;;;;;;;13099124;22;20793;-84
2023/06/01 11:33:53;;;;;;;7.03;5.30;;;;;;;;;;13098677;22;20421;-87
2023/06/01 11:38:57;;;;;;;6.70;5.00;;;;;;;;;;13096463;22;20371;-84
2023/06/01 11:43:59;;;;;;;6.37;4.63;;;;;;;;;;13098710;22;20383;-84
2023/06/01 11:49:05;;;;;;;6.03;4.50;;;;;;;;;;13097156;22;20363;-80
2023/06/01 11:54:09;;;;;;;4.88;4.10;;;;;;;;;;13098395;22;20359;-84
2023/06/01 11:59:12;;;;;;;5.95;4.22;;;;;;;;;;13096732;22;20397;-83
2023/06/01 12:04:15;;;;;;;5.60;4.55;;;;;;;;;;13093329;22;20383;-83
2023/06/01 12:09:20;;;;;;;19.40;5.90;;;;;;;;;;13097129;22;20466;-83
2023/06/01 12:14:22;;;;;;;6.17;4.70;;;;;;;;;;13096323;22;20375;-78
2023/06/01 12:19:25;;;;;;;6.93;5.10;;;;;;;;;;13099439;22;20360;-86
2023/06/01 12:24:30;;;;;;;5.40;4.40;;;;;;;;;;13104140;22;20746;-89
2023/06/01 12:29:41;;;;;;;10.10;5.30;;;;;;;;;;13104036;22;20367;-86
2023/06/01 12:35:04;;;;;;;6.47;5.13;;;;;;;;;;13105937;22;20371;-95
2023/06/01 12:40:11;;;;;;;16.33;5.13;;;;;;;;;;13104989;22;20359;-89
2023/06/01 12:45:14;;;;;;;6.47;4.90;;;;;;;;;;13105406;22;20448;-81
2023/06/01 12:50:16;;;;;;;8.03;4.63;;;;;;;;;;13106051;22;20367;-92
2023/06/01 12:55:20;;;;;;;5.17;4.63;;;;;;;;;;13105097;22;20359;-84
2023/06/01 13:00:22;;;;;;;4.90;4.40;;;;;;;;;;13103662;22;20405;-84
2023/06/01 13:05:24;;;;;;;5.07;3.70;;;;;;;;;;13101159;22;20387;-80
2023/06/01 13:10:30;;;;;;;5.63;3.83;;;;;;;;;;13099293;22;20793;-84
2023/06/01 13:15:33;;;;;;;20.83;4.40;;;;;;;;;;13099147;22;20389;-82
2023/06/01 13:20:35;;;;;;;13.13;4.18;;;;;;;;;;13097531;22;20359;-76
2023/06/01 13:25:40;;;;;;;6.87;4.20;;;;;;;;;;13097201;22;20379;-82
2023/06/01 13:30:43;;;;;;;4.85;4.00;;;;;;;;;;13098423;22;20420;-86
2023/06/01 13:35:46;;;;;;;5.57;4.03;;;;;;;;;;13105404;22;20696;-96
2023/06/01 16:29:33;;;;;;;5.23;3.37;;;;;;;;;;13178454;22;20459;-91
2023/06/01 16:34:36;;;;;;;3.88;3.40;;;;;;;;;;13173902;22;20349;-91
2023/06/01 16:39:38;;;;;;;5.80;3.50;;;;;;;;;;13173748;22;20358;-91
2023/06/01 16:44:42;;;;;;;5.63;3.60;;;;;;;;;;13172978;22;20462;-91
2023/06/01 16:49:45;;;;;;;4.28;3.38;;;;;;;;;;13173329;22;20361;-90
2023/06/01 16:54:50;;;;;;;5.20;3.80;;;;;;;;;;13173082;22;20361;-90
2023/06/01 16:59:53;;;;;;;4.10;3.37;;;;;;;;;;13172664;22;20365;-91
2023/06/01 17:04:56;;;;;;;5.68;3.38;;;;;;;;;;13173688;22;20427;-90
2023/06/01 17:09:58;;;;;;;6.57;3.35;;;;;;;;;;13175105;22;20845;-91
2023/06/01 17:15:02;;;;;;;4.13;3.10;;;;;;;;;;13173207;22;20361;-91
2023/06/01 17:20:05;;;;;;;3.20;2.90;;;;;;;;;;13174029;22;20940;-91
2023/06/01 17:25:10;;;;;;;4.03;3.03;;;;;;;;;;13172279;22;20366;-92
2023/06/01 17:30:14;;;;;;;4.20;2.93;;;;;;;;;;13173137;22;20430;-91
2023/06/01 17:35:16;;;;;;;3.97;3.00;;;;;;;;;;13172758;22;20389;-90
2023/06/01 17:40:18;;;;;;;5.10;2.60;;;;;;;;;;13174078;22;20365;-91
2023/06/01 17:45:22;;;;;;;3.15;2.70;;;;;;;;;;13167281;22;20374;-91
2023/06/01 17:50:25;;;;;;;3.92;2.50;;;;;;;;;;13163482;22;20362;-92
2023/06/01 17:55:27;;;;;;;7.50;2.95;;;;;;;;;;13164138;22;20366;-91
2023/06/01 18:00:31;;;;;;;4.38;2.85;;;;;;;;;;13163861;22;20809;-90
2023/06/01 18:05:33;;;;;;;3.73;2.90;;;;;;;;;;13167951;22;20770;-91
2023/06/01 18:10:36;;;;;;;3.73;2.60;;;;;;;;;;13168989;22;20411;-91
2023/06/01 18:15:39;;;;;;;2.88;2.25;;;;;;;;;;13167471;22;20377;-91
2023/06/01 18:20:42;;;;;;;3.72;2.75;;;;;;;;;;13177764;22;20373;-93
2023/06/01 18:25:44;;;;;;;5.00;2.77;;;;;;;;;;13167692;22;20377;-92
2023/06/01 18:30:48;;;;;;;2.70;2.50;;;;;;;;;;13177687;22;20438;-93
2023/06/01 18:35:50;;;;;;;2.72;2.20;;;;;;;;;;13170091;22;20922;-91
2023/06/01 18:40:52;;;;;;;4.40;2.10;;;;;;;;;;13169546;22;20685;-93
2023/06/01 18:45:56;;;;;;;3.00;2.27;;;;;;;;;;13172090;22;20426;-90
2023/06/01 18:50:59;;;;;;;4.47;2.58;;;;;;;;;;13174702;22;20845;-94
2023/06/01 18:56:01;;;;;;;4.23;2.20;;;;;;;;;;13148314;22;20357;-93
2023/06/01 19:01:06;;;;;;;3.00;2.25;;;;;;;;;;13175556;22;20418;-93
2023/06/01 19:06:10;;;;;;;3.15;2.03;;;;;;;;;;13175259;22;20407;-93
2023/06/01 19:11:12;;;;;;;3.08;2.50;;;;;;;;;;13174153;22;20357;-91
2023/06/01 19:16:20;;;;;;;3.20;2.42;;;;;;;;;;13174202;22;20354;-93
2023/06/01 19:21:24;;;;;;;3.60;2.47;;;;;;;;;;13174328;22;20361;-92
2023/06/01 19:26:27;;;;;;;5.13;2.83;;;;;;;;;;13174208;22;20442;-93
2023/06/01 19:31:33;;;;;;;4.57;2.80;;;;;;;;;;13174342;22;20362;-93
2023/06/01 19:36:56;;;;;;;3.05;2.67;;;;;;;;;;13174098;22;20357;-94
2023/06/01 19:42:01;;;;;;;4.43;2.57;;;;;;;;;;13173987;22;20361;-94
2023/06/01 19:47:07;;;;;;;3.53;2.60;;;;;;;;;;13175183;22;20381;-93
2023/06/01 19:52:12;;;;;;;4.15;2.90;;;;;;;;;;13175238;22;20354;-94
2023/06/01 19:57:14;;;;;;;5.15;3.03;;;;;;;;;;13176187;22;20394;-92
2023/06/01 20:02:44;;;;;;;5.77;2.87;;;;;;;;;;13175366;22;20361;-92
2023/06/01 20:07:53;;;;;;;3.42;2.70;;;;;;;;;;13198232;22;20373;-94
2023/06/01 20:12:58;;;;;;;4.45;3.03;;;;;;;;;;13215552;22;20357;-92
2023/06/01 20:18:03;;;;;;;6.32;3.63;;;;;;;;;;13175366;22;20415;-92
2023/06/01 20:23:07;;;;;;;13.27;4.70;;;;;;;;;;13175501;22;20357;-93
2023/06/01 20:28:11;;;;;;;7.97;4.20;;;;;;;;;;13171999;22;20732;-93
2023/06/01 20:33:22;;;;;;;7.93;4.40;;;;;;;;;;13172772;22;20389;-91
2023/06/01 20:38:24;;;;;;;10.13;4.80;;;;;;;;;;13173574;22;20357;-92
2023/06/01 20:43:26;;;;;;;6.22;3.72;;;;;;;;;;13173588;22;20358;-93
2023/06/01 20:48:40;;;;;;;6.85;4.18;;;;;;;;;;13174298;22;20449;-93
2023/06/01 20:53:45;;;;;;;5.40;3.70;;;;;;;;;;13173796;22;20431;-93
2023/06/01 20:58:48;;;;;;;5.43;3.53;;;;;;;;;;13173359;22;20349;-92
2023/06/01 21:03:52;;;;;;;5.93;4.07;;;;;;;;;;13180308;22;20370;-91
2023/06/01 21:08:54;;;;;;;6.53;4.05;;;;;;;;;;13165437;22;20377;-93
2023/06/01 21:13:57;;;;;;;6.63;4.65;;;;;;;;;;13182637;22;20377;-92
2023/06/01 21:19:01;;;;;;;5.47;4.45;;;;;;;;;;13167131;22;20377;-92
2023/06/01 21:24:03;;;;;;;7.85;4.90;;;;;;;;;;13165923;22;20407;-92
2023/06/01 21:29:08;;;;;;;8.90;4.80;;;;;;;;;;13149758;22;20442;-93
2023/06/01 21:34:12;;;;;;;6.45;4.85;;;;;;;;;;13167054;22;20675;-92
2023/06/01 21:39:14;;;;;;;6.82;5.05;;;;;;;;;;13172735;22;20777;-93
2023/06/01 21:44:16;;;;;;;6.50;5.13;;;;;;;;;;13173475;22;20940;-93
2023/06/01 21:49:23;;;;;;;6.85;5.13;;;;;;;;;;13176609;22;20382;-93
2023/06/01 21:54:25;;;;;;;6.50;4.95;;;;;;;;;;13201004;22;20357;-93
2023/06/01 21:59:28;;;;;;;6.40;5.07;;;;;;;;;;13180348;22;20357;-93
2023/06/01 22:04:31;;;;;;;6.95;5.45;;;;;;;;;;13186926;22;20387;-93
2023/06/01 22:09:36;;;;;;;9.13;7.07;;;;;;;;;;13183373;22;20383;-93
2023/06/01 22:14:39;;;;;;;11.83;8.00;;;;;;;;;;13179301;22;20383;-94
2023/06/01 22:19:42;;;;;;;15.02;9.45;;;;;;;;;;13178959;22;20817;-94
2023/06/01 22:24:46;;;;;;;16.90;10.18;;;;;;;;;;13179092;22;20354;-93
2023/06/01 22:30:10;;;;;;;;;;;;;;;;;;;;;
2023/06/01 22:35:15;;;;;;;12.57;10.32;;;;;;;;;;13176497;22;20369;-94
2023/06/01 22:40:17;;;;;;;12.60;9.70;;;;;;;;;;13175478;22;20387;-93
2023/06/01 22:45:20;;;;;;;14.50;10.05;;;;;;;;;;13200967;22;20882;-93
2023/06/01 22:50:24;;;;;;;13.27;10.38;;;;;;;;;;13177650;22;20852;-93
2023/06/01 22:55:26;;;;;;;15.15;10.50;;;;;;;;;;13178041;22;20354;-92
2023/06/01 23:00:29;;;;;;;16.67;11.20;;;;;;;;;;13178393;22;20353;-93
2023/06/01 23:05:39;;;;;;;17.35;12.60;;;;;;;;;;13178294;22;20435;-93
2023/06/01 23:10:48;;;;;;;15.33;12.53;;;;;;;;;;13178732;22;20953;-93
2023/06/01 23:15:51;;;;;;;16.17;11.98;;;;;;;;;;13178285;22;20387;-93
2023/06/01 23:20:54;;;;;;;18.33;12.23;;;;;;;;;;13199920;22;20365;-92
2023/06/01 23:25:57;;;;;;;19.10;13.02;;;;;;;;;;13177563;22;20674;-93
2023/06/01 23:31:00;;;;;;;16.85;12.60;;;;;;;;;;13199785;22;20373;-93
2023/06/01 23:41:32;;;;;;;18.77;12.93;;;;;;;;;;12571250;22;20406;-94
2023/06/01 23:46:34;;;;;;;18.37;12.67;;;;;;;;;;12943650;22;20419;-95
2023/06/01 23:51:36;;;;;;;15.95;12.93;;;;;;;;;;12922308;22;20356;-95
2023/06/01 23:56:40;;;;;;;15.37;11.77;;;;;;;;;;12920502;22;20422;-95
